createdAt,value
2023-05-17T00:01:18.097Z,0
2023-05-17T00:06:34.533Z,2
2023-05-17T00:11:50.771Z,0
2023-05-17T00:17:08.402Z,0
2023-05-17T00:22:24.730Z,0
2023-05-17T00:27:41.057Z,0
2023-05-17T00:32:57.433Z,0
2023-05-17T00:38:13.736Z,4
2023-05-17T00:43:30.140Z,0
2023-05-17T00:48:46.442Z,0
2023-05-17T00:54:02.746Z,0
2023-05-17T00:59:19.090Z,0
2023-05-17T01:04:35.469Z,0
2023-05-17T01:09:51.758Z,0
2023-05-17T01:15:08.113Z,0
2023-05-17T01:20:24.562Z,0
2023-05-17T01:25:40.877Z,0
2023-05-17T01:30:57.251Z,0
2023-05-17T01:36:13.553Z,0
2023-05-17T01:41:29.900Z,0
2023-05-17T01:46:46.240Z,0
2023-05-17T01:52:02.708Z,0
2023-05-17T01:57:18.894Z,0
2023-05-17T02:02:35.262Z,0
2023-05-17T02:07:51.568Z,0
2023-05-17T02:13:32.150Z,0
2023-05-17T02:18:48.547Z,0
2023-05-17T02:24:04.813Z,0
2023-05-17T02:29:21.145Z,0
2023-05-17T02:34:37.963Z,0
2023-05-17T02:39:54.300Z,0
2023-05-17T02:45:10.624Z,0
2023-05-17T02:50:26.961Z,0
2023-05-17T02:55:43.284Z,0
2023-05-17T03:00:59.571Z,0
2023-05-17T03:06:15.905Z,0
2023-05-17T03:11:32.222Z,0
2023-05-17T03:16:48.557Z,0
2023-05-17T03:22:04.877Z,2
2023-05-17T03:27:21.202Z,1
2023-05-17T03:32:37.725Z,2
2023-05-17T03:37:53.853Z,1
2023-05-17T03:43:10.179Z,0
2023-05-17T03:48:26.528Z,0
2023-05-17T03:53:42.831Z,0
2023-05-17T03:58:59.162Z,0
2023-05-17T04:04:15.532Z,0
2023-05-17T04:09:31.836Z,0
2023-05-17T04:14:48.133Z,0
2023-05-17T04:20:04.471Z,0
2023-05-17T04:25:20.776Z,0
2023-05-17T04:30:37.095Z,0
2023-05-17T04:35:53.439Z,0
2023-05-17T04:41:09.920Z,5
2023-05-17T04:46:26.081Z,0
2023-05-17T04:51:42.425Z,0
2023-05-17T04:56:58.744Z,0
2023-05-17T05:02:15.078Z,1
2023-05-17T05:07:31.406Z,0
2023-05-17T05:12:47.748Z,3
2023-05-17T05:18:04.362Z,0
2023-05-17T05:23:20.621Z,1
2023-05-17T05:28:36.958Z,0
2023-05-17T05:33:53.348Z,1
2023-05-17T05:39:09.636Z,3
2023-05-17T05:44:26.136Z,4
2023-05-17T05:49:42.321Z,6
2023-05-17T05:54:58.663Z,12
2023-05-17T06:00:15.032Z,10
2023-05-17T06:05:31.953Z,26
2023-05-17T06:10:48.234Z,16
2023-05-17T06:16:04.558Z,4
2023-05-17T06:21:20.896Z,5
2023-05-17T06:26:37.254Z,7
2023-05-17T06:31:53.591Z,3
2023-05-17T06:37:09.943Z,3
2023-05-17T06:42:26.254Z,1
2023-05-17T06:47:42.617Z,2
2023-05-17T06:52:58.911Z,2
2023-05-17T06:58:15.236Z,3
2023-05-17T07:03:31.615Z,1
2023-05-17T07:08:47.916Z,1
2023-05-17T07:14:04.241Z,1
2023-05-17T07:19:20.781Z,5
2023-05-17T07:24:36.896Z,0
2023-05-17T07:29:53.248Z,5
2023-05-17T07:35:09.586Z,2
2023-05-17T07:40:25.963Z,0
2023-05-17T07:45:42.749Z,0
2023-05-17T07:50:59.081Z,0
2023-05-17T07:56:15.429Z,1
2023-05-17T08:01:31.761Z,3
2023-05-17T08:06:48.105Z,1
2023-05-17T08:12:04.429Z,1
2023-05-17T08:17:20.744Z,1
2023-05-17T08:22:37.082Z,2
2023-05-17T08:27:53.418Z,2
2023-05-17T08:33:09.890Z,1
2023-05-17T08:38:26.100Z,2
2023-05-17T08:43:42.422Z,4
2023-05-17T08:48:58.827Z,6
2023-05-17T08:54:15.095Z,8
2023-05-17T08:59:31.448Z,5
2023-05-17T09:04:47.885Z,0
2023-05-17T09:10:04.113Z,2
2023-05-17T09:15:20.479Z,3
2023-05-17T09:20:37.069Z,2
2023-05-17T09:25:53.407Z,2
2023-05-17T09:31:09.740Z,2
2023-05-17T09:36:26.058Z,2
2023-05-17T09:41:42.411Z,3
2023-05-17T09:46:58.731Z,3
2023-05-17T09:52:15.068Z,2
2023-05-17T09:57:31.386Z,4
2023-05-17T10:02:47.769Z,4
2023-05-17T10:08:04.616Z,1
2023-05-17T10:13:20.961Z,0
2023-05-17T10:18:37.317Z,0
2023-05-17T10:23:53.559Z,0
2023-05-17T10:29:09.893Z,0
2023-05-17T10:34:26.207Z,0
2023-05-17T10:39:42.535Z,0
2023-05-17T10:44:58.842Z,0
2023-05-17T10:50:15.481Z,0
2023-05-17T10:55:31.449Z,0
2023-05-17T11:00:47.762Z,0
2023-05-17T11:06:05.154Z,0
2023-05-17T11:11:20.427Z,0
2023-05-17T11:16:36.729Z,0
2023-05-17T11:21:53.054Z,1
2023-05-17T11:27:09.353Z,0
2023-05-17T11:32:25.704Z,0
2023-05-17T11:37:41.978Z,0
2023-05-17T11:42:58.319Z,0
2023-05-17T11:48:14.680Z,0
2023-05-17T11:53:30.933Z,0
2023-05-17T11:58:47.265Z,0
2023-05-17T12:04:03.648Z,0
2023-05-17T12:09:19.872Z,0
2023-05-17T12:14:36.186Z,0
2023-05-17T12:19:52.586Z,0
2023-05-17T12:25:08.797Z,1
2023-05-17T12:30:25.102Z,0
2023-05-17T12:35:41.433Z,0
2023-05-17T12:40:57.735Z,2
2023-05-17T12:46:14.046Z,0
2023-05-17T12:51:30.336Z,0
2023-05-17T12:56:46.777Z,0
2023-05-17T13:02:03.123Z,0
2023-05-17T13:07:19.308Z,0
2023-05-17T13:12:35.620Z,0
2023-05-17T13:17:52.019Z,0
2023-05-17T13:23:08.261Z,0
2023-05-17T13:28:24.616Z,0
2023-05-17T13:33:41.038Z,5
2023-05-17T13:38:57.243Z,0
2023-05-17T13:44:13.550Z,0
2023-05-17T13:49:29.872Z,0
2023-05-17T13:54:46.195Z,0
2023-05-17T14:00:02.500Z,2
2023-05-17T14:05:18.815Z,0
2023-05-17T14:10:35.141Z,0
2023-05-17T14:15:51.453Z,0
2023-05-17T14:21:07.773Z,0
2023-05-17T14:26:24.100Z,0
2023-05-17T14:31:40.410Z,0
2023-05-17T14:36:56.709Z,0
2023-05-17T14:42:13.028Z,0
2023-05-17T14:47:29.375Z,0
2023-05-17T14:52:45.676Z,1
2023-05-17T14:58:02.056Z,0
2023-05-17T15:03:21.978Z,0
2023-05-17T15:08:34.634Z,0
2023-05-17T15:13:51.057Z,0
2023-05-17T15:19:07.259Z,0
2023-05-17T15:24:23.790Z,0
2023-05-17T15:29:40.120Z,0
2023-05-17T15:34:56.447Z,0
2023-05-17T15:40:12.762Z,0
2023-05-17T15:45:29.569Z,1
2023-05-17T15:50:45.400Z,0
2023-05-17T15:56:01.724Z,0
2023-05-17T16:01:18.034Z,0
2023-05-17T16:06:34.475Z,0
2023-05-17T16:11:50.686Z,0
2023-05-17T16:17:07.026Z,0
2023-05-17T16:22:23.330Z,0
2023-05-17T16:27:39.650Z,0
2023-05-17T16:32:56.062Z,0
2023-05-17T16:38:12.312Z,0
2023-05-17T16:43:29.386Z,3
2023-05-17T16:48:45.717Z,0
2023-05-17T16:54:02.034Z,0
2023-05-17T16:59:18.352Z,0
2023-05-17T17:04:34.669Z,1
2023-05-17T17:09:50.997Z,0
2023-05-17T17:15:07.990Z,4
2023-05-17T17:20:23.653Z,0
2023-05-17T17:25:39.980Z,0
2023-05-17T17:30:56.310Z,0
2023-05-17T17:36:12.627Z,0
2023-05-17T17:41:29.121Z,0
2023-05-17T17:46:45.344Z,0
2023-05-17T17:52:01.634Z,0
2023-05-17T17:57:17.973Z,1
2023-05-17T18:02:34.309Z,3
2023-05-17T18:07:50.631Z,5
2023-05-17T18:13:06.974Z,0
2023-05-17T18:18:23.300Z,1
2023-05-17T18:23:39.626Z,1
2023-05-17T18:28:55.947Z,0
2023-05-17T18:34:12.285Z,0
2023-05-17T18:39:28.609Z,0
2023-05-17T18:44:44.993Z,1
2023-05-17T18:50:01.250Z,0
2023-05-17T18:55:17.589Z,1
2023-05-17T19:00:34.025Z,0
2023-05-17T19:05:50.277Z,0
2023-05-17T19:11:06.609Z,3
2023-05-17T19:16:22.940Z,1
2023-05-17T19:21:39.544Z,0
2023-05-17T19:26:55.597Z,1
2023-05-17T19:32:11.935Z,2
2023-05-17T19:37:28.257Z,1
2023-05-17T19:42:44.589Z,0
2023-05-17T19:48:00.944Z,0
2023-05-17T19:53:17.252Z,1
2023-05-17T19:58:33.585Z,1
2023-05-17T20:03:50.005Z,1
2023-05-17T20:09:06.268Z,2
2023-05-17T20:14:22.613Z,1
2023-05-17T20:19:38.932Z,2
2023-05-17T20:24:57.780Z,0
2023-05-17T20:30:11.617Z,0
2023-05-17T20:35:28.652Z,1
2023-05-17T20:40:44.989Z,1
2023-05-17T20:46:01.344Z,1
2023-05-17T20:51:17.703Z,1
2023-05-17T20:56:33.980Z,1
2023-05-17T21:01:50.430Z,0
2023-05-17T21:07:06.666Z,1
2023-05-17T21:12:23.941Z,0
2023-05-17T21:17:39.376Z,1
2023-05-17T21:22:55.795Z,0
2023-05-17T21:28:12.001Z,2
2023-05-17T21:33:28.334Z,3
2023-05-17T21:38:44.673Z,5
2023-05-17T21:44:01.025Z,1
2023-05-17T21:49:17.345Z,1
2023-05-17T21:54:33.698Z,1
2023-05-17T21:59:50.043Z,1
2023-05-17T22:05:06.395Z,2
2023-05-17T22:10:22.741Z,1
2023-05-17T22:15:39.170Z,2
2023-05-17T22:20:55.435Z,2
2023-05-17T22:26:11.777Z,2
2023-05-17T22:31:28.159Z,3
2023-05-17T22:36:44.742Z,2
2023-05-17T22:42:01.086Z,2
2023-05-17T22:47:17.558Z,2
2023-05-17T22:52:33.812Z,3
2023-05-17T22:57:50.137Z,6
2023-05-17T23:03:06.554Z,3
2023-05-17T23:08:22.838Z,2
2023-05-17T23:13:39.187Z,4
2023-05-17T23:18:55.565Z,2
2023-05-17T23:24:11.891Z,2
2023-05-17T23:29:28.224Z,2
2023-05-17T23:34:44.571Z,2
2023-05-17T23:40:00.924Z,2
2023-05-17T23:45:17.291Z,2
2023-05-17T23:50:33.645Z,1
2023-05-17T23:55:49.995Z,1
